Time;durP1;ratioP1;P1;durP2;ratioP2;P2;SDS_P1;SDS_P2;PMS_P1;PMS_P2;Temp;Humidity;BMP_temperature;BMP_pressure;BME280_temperature;BME280_humidity;BME280_pressure;Samples;Min_cycle;Max_cycle;Signal;HPM_P1;HPM_P2
2021/09/05 00:00:29;;;;;;;28.63;25.58;;;17.40;62.90;;;;;;5049157;28;20470;-85
2021/09/05 00:02:55;;;;;;;26.58;23.80;;;17.40;62.90;;;;;;5064569;28;20067;-82
2021/09/05 00:05:21;;;;;;;28.73;25.05;;;17.40;63.50;;;;;;5064374;28;20055;-83
2021/09/05 00:07:47;;;;;;;27.17;24.27;;;17.40;63.00;;;;;;5064144;28;20078;-82
2021/09/05 00:10:13;;;;;;;27.83;24.40;;;17.40;63.00;;;;;;5064823;28;20028;-82
2021/09/05 00:12:41;;;;;;;27.80;23.70;;;17.30;62.80;;;;;;5067254;28;20116;-83
2021/09/05 00:15:08;;;;;;;27.98;25.00;;;17.40;63.10;;;;;;5088798;28;20085;-82
2021/09/05 00:17:34;;;;;;;28.83;25.73;;;17.30;62.90;;;;;;5088672;28;20124;-83
2021/09/05 00:20:00;;;;;;;29.75;26.55;;;17.30;63.00;;;;;;5089880;28;20070;-84
2021/09/05 00:22:26;;;;;;;29.73;25.33;;;17.30;63.00;;;;;;5088147;28;20059;-82
2021/09/05 00:24:52;;;;;;;28.30;25.33;;;17.30;63.00;;;;;;5071995;28;20025;-83
2021/09/05 00:27:18;;;;;;;28.75;25.50;;;17.20;62.90;;;;;;5051437;28;20040;-83
2021/09/05 00:29:44;;;;;;;33.47;26.48;;;17.20;63.00;;;;;;5084472;28;20391;-82
2021/09/05 00:32:10;;;;;;;28.65;23.95;;;17.20;63.00;;;;;;5071212;28;20160;-83
2021/09/05 00:34:36;;;;;;;28.23;25.35;;;17.20;63.10;;;;;;5072209;28;20057;-83
2021/09/05 00:37:03;;;;;;;29.33;26.17;;;17.10;63.00;;;;;;5069402;28;20055;-84
2021/09/05 00:39:29;;;;;;;31.42;26.85;;;17.20;63.20;;;;;;5081044;28;20028;-84
2021/09/05 00:41:55;;;;;;;29.80;26.02;;;17.10;63.00;;;;;;5089210;28;20040;-83
2021/09/05 00:44:21;;;;;;;33.35;26.38;;;17.10;63.10;;;;;;5076117;28;20530;-83
2021/09/05 00:46:47;;;;;;;32.33;26.10;;;17.00;63.00;;;;;;5051921;28;20064;-84
2021/09/05 00:49:13;;;;;;;29.15;26.02;;;17.00;63.00;;;;;;5076316;28;20028;-83
2021/09/05 00:51:42;;;;;;;32.83;27.20;;;17.00;63.00;;;;;;5067483;28;20033;-83
2021/09/05 00:54:16;;;;;;;31.02;26.40;;;17.00;63.10;;;;;;5067374;28;20483;-83
2021/09/05 00:56:45;;;;;;;28.05;25.10;;;17.00;63.10;;;;;;5050982;28;20028;-84
2021/09/05 00:59:21;;;;;;;32.75;26.88;;;17.00;63.10;;;;;;5068140;28;20043;-83
2021/09/05 01:01:47;;;;;;;29.73;25.03;;;16.90;63.00;;;;;;5068502;28;20040;-81
2021/09/05 01:04:15;;;;;;;31.45;26.52;;;16.90;63.00;;;;;;5078929;28;20021;-80
2021/09/05 01:06:43;;;;;;;30.35;26.27;;;16.90;63.10;;;;;;5086378;28;20046;-80
2021/09/05 01:09:11;;;;;;;30.02;23.65;;;16.90;63.20;;;;;;5076200;28;20028;-81
2021/09/05 01:11:39;;;;;;;29.58;26.40;;;16.80;63.00;;;;;;5067721;28;20060;-81
2021/09/05 01:14:08;;;;;;;30.52;27.20;;;16.80;63.00;;;;;;5067521;28;20016;-80
2021/09/05 01:16:43;;;;;;;30.38;26.92;;;16.80;63.20;;;;;;5067800;28;20448;-81
2021/09/05 01:19:27;;;;;;;31.80;26.92;;;16.80;63.20;;;;;;5073248;28;20062;-82
2021/09/05 01:22:07;;;;;;;28.35;25.27;;;16.70;63.00;;;;;;5070682;28;20122;-80
2021/09/05 01:25:06;;;;;;;33.03;26.10;;;16.70;63.50;;;;;;5067684;28;20029;-80
2021/09/05 01:27:50;;;;;;;29.13;26.05;;;16.70;63.00;;;;;;5066726;28;20452;-80
2021/09/05 01:30:40;;;;;;;28.88;25.85;;;16.70;63.10;;;;;;5046593;28;20040;-80
2021/09/05 01:33:24;;;;;;;30.30;26.42;;;16.60;62.90;;;;;;5061591;28;20738;-82
2021/09/05 01:36:20;;;;;;;29.88;26.45;;;16.70;63.20;;;;;;5009597;28;20042;-82
2021/09/05 01:39:24;;;;;;;29.98;26.50;;;16.60;63.00;;;;;;5072632;28;20039;-82
2021/09/05 01:42:22;;;;;;;31.83;24.95;;;16.60;63.00;;;;;;5070753;28;20493;-80
2021/09/05 01:45:08;;;;;;;34.72;27.05;;;16.60;63.00;;;;;;5087711;28;20129;-82
2021/09/05 01:48:13;;;;;;;31.95;25.60;;;16.60;63.10;;;;;;5026794;28;20028;-81
2021/09/05 01:50:58;;;;;;;30.55;26.70;;;16.60;63.10;;;;;;5029441;28;20107;-80
2021/09/05 01:54:02;;;;;;;30.80;27.27;;;16.60;63.20;;;;;;5050373;28;20050;-81
2021/09/05 01:56:58;;;;;;;31.45;26.17;;;16.50;63.00;;;;;;5070978;28;20300;-82
2021/09/05 01:59:42;;;;;;;29.13;25.83;;;16.50;63.10;;;;;;5071024;28;20020;-80
2021/09/05 02:02:31;;;;;;;33.08;26.98;;;16.50;63.10;;;;;;5070461;28;20610;-80
2021/09/05 02:05:26;;;;;;;30.60;27.40;;;16.50;63.20;;;;;;5057409;28;20044;-82
2021/09/05 02:08:18;;;;;;;31.70;28.35;;;16.50;63.20;;;;;;5070649;28;20060;-82
2021/09/05 02:11:19;;;;;;;28.27;25.13;;;16.50;63.20;;;;;;5009528;28;20635;-81
2021/09/05 02:14:11;;;;;;;30.38;26.52;;;16.40;63.00;;;;;;5068513;28;20036;-84
2021/09/05 02:16:52;;;;;;;34.58;27.67;;;16.40;63.00;;;;;;5071706;28;20098;-83
2021/09/05 02:19:36;;;;;;;29.83;26.65;;;16.40;63.10;;;;;;5092857;28;20164;-83
2021/09/05 02:22:21;;;;;;;32.50;27.15;;;16.40;63.10;;;;;;5093372;28;20032;-83
2021/09/05 02:25:13;;;;;;;30.42;26.95;;;16.40;63.20;;;;;;5078834;28;20055;-80
2021/09/05 02:28:12;;;;;;;32.63;27.27;;;16.40;63.20;;;;;;5046866;28;20036;-82
2021/09/05 02:30:58;;;;;;;32.50;28.27;;;16.30;63.10;;;;;;5092150;28;20038;-81
2021/09/05 02:33:44;;;;;;;30.90;27.52;;;16.30;63.10;;;;;;5089750;28;20044;-81
2021/09/05 02:36:38;;;;;;;30.17;26.90;;;16.30;63.20;;;;;;5077397;28;20027;-82
2021/09/05 02:39:22;;;;;;;30.27;26.80;;;16.30;63.20;;;;;;5091479;28;20103;-81
2021/09/05 02:42:08;;;;;;;35.38;27.92;;;16.30;63.20;;;;;;5089181;28;20132;-82
2021/09/05 02:44:52;;;;;;;32.13;26.77;;;16.30;63.30;;;;;;5090395;28;20252;-82
2021/09/05 02:47:28;;;;;;;32.88;27.92;;;16.30;63.30;;;;;;5084072;28;20036;-82
2021/09/05 02:50:14;;;;;;;31.58;26.60;;;16.30;63.30;;;;;;5040079;28;20392;-82
2021/09/05 02:53:03;;;;;;;31.48;27.92;;;16.20;63.20;;;;;;5047599;28;20033;-83
2021/09/05 02:56:07;;;;;;;33.65;27.35;;;16.20;63.20;;;;;;5063359;28;20031;-80
2021/09/05 02:58:59;;;;;;;34.10;27.02;;;16.20;63.20;;;;;;5063683;28;20237;-79
2021/09/05 03:01:59;;;;;;;30.23;26.70;;;16.20;63.30;;;;;;5022386;28;20060;-83
2021/09/05 03:04:26;;;;;;;30.58;26.67;;;16.10;63.10;;;;;;5071942;28;20112;-80
2021/09/05 03:07:17;;;;;;;29.42;25.77;;;16.10;63.20;;;;;;5071041;28;20028;-82
2021/09/05 03:10:09;;;;;;;34.28;28.30;;;16.10;63.30;;;;;;5071206;28;20029;-81
2021/09/05 03:12:38;;;;;;;34.10;26.98;;;16.10;63.40;;;;;;5069716;28;20545;-81
2021/09/05 03:15:19;;;;;;;33.40;27.08;;;16.00;63.20;;;;;;5070560;28;20381;-81
2021/09/05 03:18:07;;;;;;;32.95;28.63;;;16.00;63.30;;;;;;5080651;28;20044;-82
2021/09/05 03:20:54;;;;;;;34.47;27.63;;;16.00;63.30;;;;;;5091116;28;20051;-81
2021/09/05 03:23:40;;;;;;;30.83;26.20;;;16.00;63.40;;;;;;5090936;28;20055;-82
2021/09/05 03:26:25;;;;;;;34.85;28.38;;;16.00;63.40;;;;;;5090847;28;20031;-81
2021/09/05 03:29:17;;;;;;;32.10;26.92;;;15.90;63.30;;;;;;5058939;28;20040;-80
2021/09/05 03:32:14;;;;;;;32.90;26.48;;;15.90;63.30;;;;;;5076654;28;20025;-81
2021/09/05 03:35:06;;;;;;;30.63;27.38;;;15.90;63.30;;;;;;5089758;28;20052;-81
2021/09/05 03:37:38;;;;;;;32.25;28.42;;;15.90;63.70;;;;;;5090555;28;20543;-80
2021/09/05 03:40:22;;;;;;;32.72;26.70;;;15.90;63.40;;;;;;5066102;28;20036;-82
2021/09/05 03:43:08;;;;;;;33.85;26.90;;;15.90;63.50;;;;;;5058575;28;20032;-81
2021/09/05 03:46:10;;;;;;;32.42;26.60;;;15.80;63.30;;;;;;5035164;28;20052;-80
2021/09/05 03:49:05;;;;;;;35.78;27.05;;;15.90;63.50;;;;;;5038912;28;20061;-79
2021/09/05 03:51:32;;;;;;;31.77;27.42;;;15.80;63.40;;;;;;5048593;28;20032;-80
2021/09/05 03:53:59;;;;;;;31.25;27.90;;;15.80;63.40;;;;;;5032035;28;20106;-80
2021/09/05 03:56:25;;;;;;;34.50;27.50;;;15.80;63.50;;;;;;5050816;28;20472;-81
2021/09/05 03:58:55;;;;;;;30.00;26.80;;;15.80;63.50;;;;;;5034869;28;20028;-82
2021/09/05 04:01:23;;;;;;;31.55;28.13;;;15.80;63.50;;;;;;5048851;28;20041;-81
2021/09/05 04:04:04;;;;;;;30.92;27.17;;;15.80;63.50;;;;;;5048614;28;20036;-83
2021/09/05 04:06:30;;;;;;;30.52;26.33;;;15.80;63.50;;;;;;5068796;28;20036;-81
2021/09/05 04:09:00;;;;;;;33.85;28.00;;;15.70;63.40;;;;;;5069561;28;20123;-82
2021/09/05 04:11:26;;;;;;;35.95;27.25;;;15.80;63.60;;;;;;5070187;28;20036;-82
2021/09/05 04:13:52;;;;;;;33.72;28.17;;;15.70;63.50;;;;;;5068203;28;20454;-82
2021/09/05 04:16:18;;;;;;;32.33;27.40;;;15.70;63.50;;;;;;5068419;28;20032;-81
2021/09/05 04:18:44;;;;;;;31.88;27.20;;;15.70;63.60;;;;;;5085797;28;20609;-80
2021/09/05 04:21:10;;;;;;;32.38;26.55;;;15.70;63.60;;;;;;5087855;28;20353;-81
2021/09/05 04:23:36;;;;;;;33.85;27.73;;;15.70;63.70;;;;;;5089224;28;20051;-81
2021/09/05 04:26:02;;;;;;;30.33;27.05;;;15.70;63.70;;;;;;5088891;28;20097;-80
2021/09/05 04:28:28;;;;;;;29.98;26.48;;;15.70;63.70;;;;;;5088859;28;20111;-81
2021/09/05 04:30:54;;;;;;;29.92;26.10;;;15.60;63.60;;;;;;5088835;28;20127;-81
2021/09/05 04:33:20;;;;;;;35.20;26.30;;;15.60;63.60;;;;;;5087951;28;20047;-82
2021/09/05 04:35:46;;;;;;;34.88;26.98;;;15.60;63.60;;;;;;5089446;28;20181;-80
2021/09/05 04:38:12;;;;;;;30.33;26.65;;;15.60;63.70;;;;;;5089937;28;20024;-81
2021/09/05 04:40:38;;;;;;;33.75;26.38;;;15.60;63.70;;;;;;5089595;28;20040;-82
2021/09/05 04:43:04;;;;;;;30.02;26.45;;;15.60;63.70;;;;;;5090138;28;20032;-82
2021/09/05 04:45:30;;;;;;;32.05;24.98;;;15.60;63.80;;;;;;5089598;28;20028;-82
2021/09/05 04:47:56;;;;;;;31.77;25.33;;;15.60;63.80;;;;;;5070327;28;20040;-81
2021/09/05 04:50:22;;;;;;;29.05;25.65;;;15.60;63.80;;;;;;5061707;28;20031;-82
2021/09/05 04:52:48;;;;;;;32.42;26.48;;;15.50;63.60;;;;;;5046124;28;20037;-81
2021/09/05 04:55:14;;;;;;;30.52;26.13;;;15.50;63.70;;;;;;5047263;28;20036;-81
2021/09/05 04:57:40;;;;;;;33.20;26.52;;;15.50;63.70;;;;;;5051726;28;20169;-82
2021/09/05 05:00:06;;;;;;;31.00;25.08;;;15.50;63.70;;;;;;5070161;28;20447;-82
2021/09/05 05:02:32;;;;;;;29.13;25.50;;;15.50;63.70;;;;;;5066731;28;20403;-81
2021/09/05 05:04:58;;;;;;;29.52;25.50;;;15.50;63.80;;;;;;5047952;28;20025;-80
2021/09/05 05:07:24;;;;;;;29.55;24.33;;;15.40;63.60;;;;;;5049663;28;20480;-81
2021/09/05 05:09:53;;;;;;;28.92;25.65;;;15.50;63.80;;;;;;5034571;28;20178;-81
2021/09/05 05:12:20;;;;;;;29.27;25.20;;;15.50;63.80;;;;;;5068081;28;20029;-81
2021/09/05 05:14:45;;;;;;;26.85;23.45;;;15.50;63.80;;;;;;5068103;28;20798;-82
2021/09/05 05:17:11;;;;;;;29.30;24.38;;;15.40;63.70;;;;;;5070016;28;20149;-81
2021/09/05 05:19:37;;;;;;;31.88;25.08;;;15.40;63.70;;;;;;5049828;28;20492;-82
2021/09/05 05:22:05;;;;;;;26.40;23.55;;;15.40;63.70;;;;;;5067272;28;20234;-81
2021/09/05 05:24:31;;;;;;;31.65;24.90;;;15.40;63.70;;;;;;5067735;28;20032;-81
2021/09/05 05:26:57;;;;;;;28.33;23.58;;;15.40;63.80;;;;;;5067413;28;20032;-81
2021/09/05 05:29:23;;;;;;;26.42;23.67;;;15.40;63.80;;;;;;5068888;28;20117;-81
2021/09/05 05:31:50;;;;;;;25.55;22.65;;;15.40;63.90;;;;;;5070944;28;20059;-82
2021/09/05 05:34:16;;;;;;;31.13;23.13;;;15.40;63.90;;;;;;5047333;28;20064;-82
2021/09/05 05:36:42;;;;;;;26.00;22.60;;;15.30;63.70;;;;;;5048284;28;20468;-80
2021/09/05 05:39:08;;;;;;;26.85;23.95;;;15.30;63.70;;;;;;5062823;28;20337;-81
2021/09/05 05:41:34;;;;;;;27.85;25.05;;;15.30;63.70;;;;;;5063849;28;20131;-81
2021/09/05 05:44:00;;;;;;;28.83;22.92;;;15.30;63.80;;;;;;5068411;28;20037;-81
2021/09/05 05:46:25;;;;;;;27.30;22.88;;;15.30;63.90;;;;;;5058644;28;20032;-81
2021/09/05 05:48:51;;;;;;;25.88;22.60;;;15.30;63.80;;;;;;5070293;28;20033;-82
2021/09/05 05:51:17;;;;;;;26.40;21.88;;;15.30;63.90;;;;;;5066271;28;20484;-82
2021/09/05 05:53:43;;;;;;;23.60;21.13;;;15.30;63.90;;;;;;5082676;28;20123;-81
2021/09/05 05:56:09;;;;;;;25.70;22.77;;;15.30;63.90;;;;;;5088393;28;20348;-78
2021/09/05 05:58:35;;;;;;;28.40;21.23;;;15.30;63.90;;;;;;5079319;28;20028;-80
2021/09/05 06:01:01;;;;;;;21.73;19.50;;;15.30;64.00;;;;;;5095790;28;20044;-81
2021/09/05 06:03:27;;;;;;;29.15;21.90;;;15.30;64.00;;;;;;5075168;28;20040;-80
2021/09/05 06:05:54;;;;;;;25.08;21.77;;;15.30;64.00;;;;;;5063530;28;20334;-83
2021/09/05 06:08:20;;;;;;;24.58;21.95;;;15.30;64.00;;;;;;5055104;28;20442;-82
2021/09/05 06:10:46;;;;;;;26.17;22.42;;;15.30;64.00;;;;;;5062523;28;20029;-83
2021/09/05 06:13:12;;;;;;;23.40;21.00;;;15.30;64.00;;;;;;5059819;28;20059;-83
2021/09/05 06:15:38;;;;;;;23.65;20.90;;;15.30;64.00;;;;;;5066962;28;20320;-82
2021/09/05 06:18:05;;;;;;;24.67;19.90;;;15.30;64.00;;;;;;5075519;28;20159;-82
2021/09/05 06:20:31;;;;;;;24.75;20.80;;;15.30;64.00;;;;;;5046544;28;20376;-82
2021/09/05 06:22:56;;;;;;;24.13;21.27;;;15.40;64.20;;;;;;5064541;28;20036;-84
2021/09/05 06:25:22;;;;;;;25.35;20.42;;;15.50;64.40;;;;;;5072026;28;20043;-82
2021/09/05 06:27:48;;;;;;;27.13;20.85;;;15.50;64.40;;;;;;5067234;28;20060;-82
2021/09/05 06:30:14;;;;;;;23.95;20.23;;;15.50;64.40;;;;;;5061613;28;20106;-81
2021/09/05 06:32:40;;;;;;;25.17;21.10;;;15.50;64.50;;;;;;5065491;28;20033;-84
2021/09/05 06:35:07;;;;;;;25.23;20.48;;;15.60;64.70;;;;;;5067335;28;20395;-83
2021/09/05 06:37:33;;;;;;;23.25;20.70;;;15.60;64.70;;;;;;5051624;28;20089;-81
2021/09/05 06:39:59;;;;;;;27.20;21.02;;;15.60;64.70;;;;;;5071219;28;20032;-83
2021/09/05 06:42:25;;;;;;;25.20;20.33;;;15.70;64.90;;;;;;5049092;28;20509;-83
2021/09/05 06:44:51;;;;;;;25.63;20.52;;;15.70;64.90;;;;;;5067532;28;20040;-84
2021/09/05 06:47:17;;;;;;;23.63;20.80;;;15.70;64.90;;;;;;5065467;28;20066;-83
2021/09/05 06:49:43;;;;;;;27.60;21.15;;;15.70;64.90;;;;;;5046792;28;20552;-82
2021/09/05 06:52:09;;;;;;;27.58;20.80;;;15.80;65.60;;;;;;5065036;28;20052;-85
2021/09/05 06:54:35;;;;;;;24.60;19.58;;;15.80;65.00;;;;;;5067021;28;20051;-84
2021/09/05 06:57:01;;;;;;;21.95;19.00;;;15.80;65.00;;;;;;5049776;28;20028;-83
2021/09/05 06:59:27;;;;;;;25.27;20.20;;;15.90;65.10;;;;;;5067655;28;20105;-84
2021/09/05 07:01:53;;;;;;;22.38;19.80;;;15.90;65.10;;;;;;5065752;28;20048;-83
2021/09/05 07:04:19;;;;;;;24.73;21.42;;;16.00;65.80;;;;;;5048743;28;20486;-83
2021/09/05 07:06:46;;;;;;;22.25;19.40;;;16.00;65.20;;;;;;5049535;28;20431;-84
2021/09/05 07:09:12;;;;;;;23.38;19.90;;;16.00;65.10;;;;;;5082200;28;20032;-83
2021/09/05 07:11:38;;;;;;;23.67;19.85;;;16.10;65.20;;;;;;5086784;28;20055;-84
2021/09/05 07:14:04;;;;;;;24.90;20.38;;;16.10;65.20;;;;;;5068630;28;20063;-84
2021/09/05 07:16:30;;;;;;;25.00;20.73;;;16.20;65.40;;;;;;5069059;28;20366;-85
2021/09/05 07:18:56;;;;;;;20.98;18.88;;;16.30;65.40;;;;;;5086422;28;20028;-84
2021/09/05 07:21:22;;;;;;;22.20;19.13;;;16.30;65.40;;;;;;5085770;28;20505;-84
2021/09/05 07:23:48;;;;;;;23.67;20.30;;;16.30;65.30;;;;;;5058002;28;20069;-80
2021/09/05 07:26:14;;;;;;;21.35;19.15;;;16.40;65.40;;;;;;5059092;28;20391;-79
2021/09/05 07:28:40;;;;;;;22.95;19.58;;;16.50;65.50;;;;;;5048298;28;20523;-80
2021/09/05 07:31:07;;;;;;;24.63;18.42;;;16.50;65.50;;;;;;5044505;28;20127;-79
2021/09/05 07:33:33;;;;;;;21.08;18.08;;;16.60;65.60;;;;;;5063235;28;20123;-80
2021/09/05 07:35:59;;;;;;;23.15;19.20;;;16.60;65.50;;;;;;5065647;28;20132;-79
2021/09/05 07:38:25;;;;;;;24.50;19.98;;;16.70;65.60;;;;;;5040429;28;20077;-81
2021/09/05 07:40:51;;;;;;;26.98;20.27;;;16.80;65.80;;;;;;5067259;28;20067;-79
2021/09/05 07:43:17;;;;;;;22.73;19.90;;;16.90;65.90;;;;;;5063478;28;20045;-80
2021/09/05 07:45:43;;;;;;;24.27;19.85;;;16.90;65.80;;;;;;5072445;28;20052;-80
2021/09/05 07:48:09;;;;;;;23.83;20.63;;;17.00;65.90;;;;;;5053580;28;20079;-79
2021/09/05 07:50:35;;;;;;;24.48;20.15;;;17.00;65.80;;;;;;5045183;28;20033;-80
2021/09/05 07:53:01;;;;;;;22.42;20.15;;;17.10;65.90;;;;;;5037998;28;20060;-79
2021/09/05 07:55:27;;;;;;;22.70;19.33;;;17.20;66.00;;;;;;5054911;28;20071;-79
2021/09/05 07:57:53;;;;;;;23.73;19.88;;;17.20;65.90;;;;;;5049049;28;20115;-80
2021/09/05 08:00:19;;;;;;;25.58;21.30;;;17.30;66.00;;;;;;5054105;28;20036;-81
2021/09/05 08:02:46;;;;;;;26.92;21.23;;;17.20;65.80;;;;;;5049117;28;20032;-80
2021/09/05 08:05:12;;;;;;;40.75;31.10;;;17.30;65.90;;;;;;5063681;28;20078;-80
2021/09/05 08:07:38;;;;;;;39.17;32.00;;;17.30;66.60;;;;;;5063662;28;20036;-84
2021/09/05 08:10:05;;;;;;;39.78;32.58;;;17.30;66.40;;;;;;5047155;28;20032;-83
2021/09/05 08:12:32;;;;;;;40.65;30.20;;;17.30;66.60;;;;;;5064174;28;20055;-82
2021/09/05 08:14:57;;;;;;;36.33;30.05;;;17.30;66.80;;;;;;5047904;28;20035;-82
2021/09/05 08:17:23;;;;;;;42.47;33.00;;;17.30;67.00;;;;;;5068738;28;20028;-82
2021/09/05 08:19:50;;;;;;;36.05;31.77;;;17.40;67.30;;;;;;5084335;28;20058;-84
2021/09/05 08:22:17;;;;;;;42.63;31.45;;;17.40;67.40;;;;;;5052404;28;20041;-82
2021/09/05 08:24:44;;;;;;;44.13;33.72;;;17.40;67.50;;;;;;5065633;28;20028;-83
2021/09/05 08:27:10;;;;;;;45.15;35.30;;;17.50;67.70;;;;;;5064734;28;20087;-83
2021/09/05 08:29:36;;;;;;;45.40;35.03;;;17.50;67.70;;;;;;5047795;28;20039;-81
2021/09/05 08:32:03;;;;;;;47.78;33.75;;;17.60;67.90;;;;;;5065380;28;20052;-81
2021/09/05 08:34:33;;;;;;;41.38;33.45;;;17.60;67.90;;;;;;5050164;28;20128;-82
2021/09/05 08:37:06;;;;;;;45.13;33.80;;;17.70;68.10;;;;;;5048844;28;20104;-83
2021/09/05 08:39:32;;;;;;;47.60;34.30;;;17.70;68.10;;;;;;5069509;28;20515;-83
2021/09/05 08:41:58;;;;;;;39.70;33.85;;;17.80;68.20;;;;;;5090829;28;20036;-83
2021/09/05 08:44:25;;;;;;;49.35;36.00;;;17.80;68.30;;;;;;5052587;28;20035;-82
2021/09/05 08:46:52;;;;;;;46.35;34.42;;;17.90;68.40;;;;;;5071156;28;20379;-83
2021/09/05 08:49:25;;;;;;;46.35;37.22;;;17.90;68.40;;;;;;5088824;28;20436;-82
2021/09/05 08:51:51;;;;;;;48.00;35.92;;;17.90;68.30;;;;;;5088963;28;20127;-82
2021/09/05 08:54:17;;;;;;;50.20;36.80;;;18.00;68.40;;;;;;5071919;28;20097;-82
2021/09/05 08:56:43;;;;;;;48.97;38.40;;;18.10;68.60;;;;;;5088054;28;20036;-83
2021/09/05 08:59:09;;;;;;;45.65;34.95;;;18.10;68.60;;;;;;5075881;28;20327;-83
2021/09/05 09:01:35;;;;;;;50.63;37.17;;;18.10;68.50;;;;;;5074490;28;20580;-82
2021/09/05 09:04:12;;;;;;;54.50;39.08;;;18.10;68.50;;;;;;5075669;28;20662;-83
2021/09/05 09:06:40;;;;;;;45.30;35.25;;;18.20;68.80;;;;;;5083392;28;20181;-82
2021/09/05 09:09:07;;;;;;;52.55;38.63;;;18.20;69.30;;;;;;5085139;28;20032;-81
2021/09/05 09:11:45;;;;;;;55.15;40.28;;;18.30;69.00;;;;;;5071542;28;20029;-83
2021/09/05 09:14:11;;;;;;;53.53;38.75;;;18.30;69.10;;;;;;5071260;28;20483;-82
2021/09/05 09:16:37;;;;;;;53.80;38.97;;;18.30;68.90;;;;;;5071095;28;20557;-82
2021/09/05 09:19:04;;;;;;;47.67;38.33;;;18.40;69.10;;;;;;5088386;28;20068;-81
2021/09/05 09:21:38;;;;;;;50.63;39.78;;;18.40;69.10;;;;;;5089636;28;20055;-81
2021/09/05 09:24:18;;;;;;;48.45;39.05;;;18.40;69.30;;;;;;5067535;28;20511;-81
2021/09/05 09:26:57;;;;;;;51.25;38.30;;;18.50;69.40;;;;;;5069555;28;20038;-84
2021/09/05 09:29:23;;;;;;;54.55;41.63;;;18.50;69.30;;;;;;5070342;28;20508;-82
2021/09/05 09:32:01;;;;;;;50.55;38.53;;;18.60;69.40;;;;;;5067396;28;20148;-82
2021/09/05 09:34:27;;;;;;;53.22;39.20;;;18.60;69.40;;;;;;5067026;28;20088;-84
2021/09/05 09:36:58;;;;;;;50.05;40.47;;;18.70;69.40;;;;;;5067755;28;20063;-82
2021/09/05 09:39:28;;;;;;;50.72;40.67;;;18.80;69.60;;;;;;5085660;28;20032;-85
2021/09/05 09:41:54;;;;;;;53.17;40.78;;;18.80;69.50;;;;;;5088455;28;20036;-82
2021/09/05 09:44:28;;;;;;;51.03;40.95;;;18.90;69.60;;;;;;5087558;28;20368;-81
2021/09/05 09:47:07;;;;;;;56.40;39.65;;;18.90;69.60;;;;;;5088370;28;20066;-81
2021/09/05 09:49:47;;;;;;;55.58;42.22;;;19.00;69.60;;;;;;5069524;28;20039;-78
2021/09/05 09:52:14;;;;;;;51.47;40.88;;;19.00;69.60;;;;;;5069580;28;20039;-81
2021/09/05 09:54:41;;;;;;;56.83;42.58;;;19.10;69.60;;;;;;5074131;28;20020;-83
2021/09/05 09:57:07;;;;;;;60.13;39.88;;;19.10;69.60;;;;;;5087221;28;20036;-83
2021/09/05 09:59:33;;;;;;;54.70;41.72;;;19.20;69.70;;;;;;5070290;28;20078;-84
2021/09/05 10:01:59;;;;;;;61.22;43.00;;;19.20;69.60;;;;;;5087914;28;20490;-84
2021/09/05 10:04:29;;;;;;;56.20;43.40;;;19.20;69.50;;;;;;5070118;28;20025;-83
2021/09/05 10:06:55;;;;;;;54.85;40.33;;;19.30;69.70;;;;;;5086132;28;20119;-83
2021/09/05 10:09:23;;;;;;;54.65;40.70;;;19.30;69.60;;;;;;5069521;28;20055;-82
2021/09/05 10:11:50;;;;;;;56.60;41.40;;;19.40;69.70;;;;;;5048130;28;20060;-84
2021/09/05 10:14:20;;;;;;;57.33;43.97;;;19.40;69.60;;;;;;5066102;28;20412;-84
2021/09/05 10:16:47;;;;;;;53.80;42.08;;;19.40;69.50;;;;;;5064413;28;20087;-84
2021/09/05 10:19:14;;;;;;;57.10;43.30;;;19.40;69.50;;;;;;5062467;28;20093;-83
2021/09/05 10:21:40;;;;;;;58.33;44.10;;;19.40;69.50;;;;;;5065631;28;20155;-83
2021/09/05 10:24:15;;;;;;;52.30;42.85;;;19.40;69.40;;;;;;5066198;28;20119;-84
2021/09/05 10:26:59;;;;;;;54.45;41.63;;;19.40;69.50;;;;;;5087142;28;20040;-85
2021/09/05 10:29:25;;;;;;;55.15;43.25;;;19.50;69.70;;;;;;5069246;28;20032;-85
2021/09/05 10:31:51;;;;;;;57.35;43.92;;;19.40;69.50;;;;;;5049280;28;20033;-84
2021/09/05 10:34:31;;;;;;;55.53;43.42;;;19.50;69.70;;;;;;5065261;28;20049;-80
2021/09/05 10:37:14;;;;;;;59.15;43.28;;;19.50;69.70;;;;;;5066649;28;20116;-84
2021/09/05 10:40:11;;;;;;;57.60;43.25;;;19.50;69.70;;;;;;5068529;28;20071;-82
2021/09/05 10:42:53;;;;;;;56.28;42.30;;;19.50;69.60;;;;;;5067255;28;20123;-82
2021/09/05 10:45:21;;;;;;;58.60;42.80;;;19.60;69.80;;;;;;5065975;28;20418;-83
2021/09/05 10:47:47;;;;;;;56.60;41.55;;;19.70;70.00;;;;;;5071762;28;20039;-83
2021/09/05 10:50:32;;;;;;;55.83;41.83;;;19.70;70.00;;;;;;5060860;28;20387;-84
2021/09/05 10:53:16;;;;;;;58.70;41.88;;;19.70;70.00;;;;;;5060595;28;20032;-79
2021/09/05 10:56:07;;;;;;;57.00;45.10;;;19.80;70.10;;;;;;5064614;28;20028;-81
2021/09/05 10:58:40;;;;;;;61.63;44.78;;;19.90;70.00;;;;;;5075769;28;20043;-78
2021/09/05 11:01:09;;;;;;;;;;;20.00;70.10;;;;;;5086582;28;20036;-78
2021/09/05 11:04:10;;;;;;;59.53;45.88;;;20.10;70.10;;;;;;5086409;28;19908;-81
2021/09/05 11:06:43;;;;;;;56.10;42.80;;;20.10;69.90;;;;;;5085247;28;20116;-83
2021/09/05 11:09:25;;;;;;;;;;;20.20;70.50;;;;;;5087491;28;20112;-82
2021/09/05 11:12:11;;;;;;;57.28;41.25;;;20.30;70.10;;;;;;5068524;28;19908;-81
2021/09/05 11:14:40;;;;;;;60.03;44.95;;;20.40;70.10;;;;;;5085686;28;20051;-78
2021/09/05 11:17:07;;;;;;;59.03;44.22;;;20.40;70.10;;;;;;5086611;28;20024;-82
2021/09/05 11:19:49;;;;;;;56.17;45.05;;;20.50;70.20;;;;;;5067698;28;20047;-81
2021/09/05 11:22:19;;;;;;;52.50;43.72;;;20.60;70.20;;;;;;5065917;28;20036;-82
2021/09/05 11:24:46;;;;;;;53.80;43.25;;;20.80;70.30;;;;;;5065338;28;20032;-81
2021/09/05 11:27:15;;;;;;;57.38;44.17;;;20.80;70.20;;;;;;5047889;28;20111;-80
2021/09/05 11:29:42;;;;;;;54.92;42.95;;;20.90;70.20;;;;;;5065427;28;20035;-81
2021/09/05 11:32:12;;;;;;;57.45;45.22;;;21.00;70.10;;;;;;5053689;28;20136;-84
2021/09/05 11:34:53;;;;;;;55.75;42.45;;;21.10;70.10;;;;;;5035584;28;20049;-83
2021/09/05 11:37:27;;;;;;;52.33;43.42;;;21.20;70.00;;;;;;5047065;28;20043;-84
2021/09/05 11:39:53;;;;;;;52.13;43.20;;;21.30;69.90;;;;;;5044994;28;20052;-81
2021/09/05 11:42:21;;;;;;;60.13;45.03;;;21.40;70.00;;;;;;5049374;28;20099;-83
2021/09/05 11:44:47;;;;;;;56.08;44.92;;;21.40;69.80;;;;;;5061340;28;20128;-83
2021/09/05 11:47:19;;;;;;;60.47;45.08;;;21.40;69.60;;;;;;5051511;28;20044;-82
2021/09/05 11:49:50;;;;;;;56.42;44.28;;;21.40;69.50;;;;;;5068201;28;20028;-83
2021/09/05 11:52:21;;;;;;;47.13;40.40;;;21.50;69.60;;;;;;5083405;28;20032;-84
2021/09/05 11:55:07;;;;;;;59.50;45.17;;;21.40;69.40;;;;;;5066404;28;20032;-83
2021/09/05 11:57:36;;;;;;;53.33;42.88;;;21.50;70.20;;;;;;5049388;28;20044;-85
2021/09/05 12:00:06;;;;;;;46.92;41.35;;;21.50;69.70;;;;;;5083818;28;20464;-83
2021/09/05 12:02:40;;;;;;;54.78;43.15;;;21.60;69.80;;;;;;5081489;28;20443;-83
2021/09/05 12:05:11;;;;;;;53.25;43.10;;;21.60;69.80;;;;;;5065705;28;20055;-82
2021/09/05 12:07:38;;;;;;;50.80;42.72;;;21.60;69.80;;;;;;5064249;28;20112;-82
2021/09/05 12:10:10;;;;;;;57.42;42.67;;;21.60;69.80;;;;;;5026327;28;20128;-83
2021/09/05 12:12:40;;;;;;;49.25;41.30;;;21.70;70.00;;;;;;5064097;28;20462;-82
2021/09/05 12:15:12;;;;;;;52.55;43.78;;;21.70;70.00;;;;;;5065095;28;20032;-82
2021/09/05 12:17:42;;;;;;;54.72;43.28;;;21.70;69.90;;;;;;5071308;28;20036;-84
2021/09/05 12:20:10;;;;;;;51.92;42.47;;;21.80;69.80;;;;;;5047845;28;20123;-84
2021/09/05 12:22:42;;;;;;;55.45;43.58;;;21.80;69.70;;;;;;5048288;28;20036;-83
2021/09/05 12:25:22;;;;;;;53.33;42.25;;;21.80;69.50;;;;;;5064000;28;20024;-84
2021/09/05 12:28:07;;;;;;;46.65;40.92;;;21.90;69.60;;;;;;5063507;28;20044;-83
2021/09/05 12:30:52;;;;;;;57.40;43.38;;;21.90;69.60;;;;;;5067863;28;20033;-83
2021/09/05 12:33:27;;;;;;;56.30;43.05;;;21.90;69.70;;;;;;5077679;28;21396;-83
2021/09/05 12:36:16;;;;;;;54.10;43.05;;;21.90;69.70;;;;;;5087200;28;20486;-83
2021/09/05 12:38:54;;;;;;;47.85;39.15;;;21.90;69.80;;;;;;5095466;28;20031;-83
2021/09/05 12:41:23;;;;;;;54.80;41.17;;;22.00;70.00;;;;;;5087412;28;20051;-83
2021/09/05 12:44:02;;;;;;;53.80;42.88;;;22.00;70.00;;;;;;5056695;28;20148;-83
2021/09/05 12:46:36;;;;;;;50.90;41.88;;;22.10;70.10;;;;;;5052147;28;20036;-86
2021/09/05 12:49:17;;;;;;;52.83;41.53;;;22.10;70.00;;;;;;5076227;28;20024;-85
2021/09/05 12:52:01;;;;;;;54.80;43.80;;;22.10;69.90;;;;;;5072156;28;20046;-86
2021/09/05 12:54:28;;;;;;;54.75;43.95;;;22.10;69.80;;;;;;5087595;28;20032;-86